createdAt,value
2019-04-14T00:00:34.259Z,36.70
2019-04-14T00:03:39.029Z,36.70
2019-04-14T00:06:26.647Z,36.70
2019-04-14T00:09:14.109Z,36.70
2019-04-14T00:11:59.294Z,36.90
2019-04-14T00:14:44.696Z,36.90
2019-04-14T00:17:30.604Z,36.80
2019-04-14T00:20:18.606Z,37.00
2019-04-14T00:23:04.374Z,36.90
2019-04-14T00:25:50.116Z,37.00
2019-04-14T00:28:35.766Z,36.90
2019-04-14T00:31:21.668Z,37.00
2019-04-14T00:34:18.101Z,37.00
2019-04-14T00:37:07.849Z,37.70
2019-04-14T00:39:57.735Z,37.00
2019-04-14T00:42:47.595Z,37.10
2019-04-14T00:45:44.395Z,37.10
2019-04-14T00:48:24.297Z,37.10
2019-04-14T00:51:11.281Z,37.10
2019-04-14T00:53:56.299Z,37.10
2019-04-14T00:56:41.645Z,37.10
2019-04-14T00:59:27.567Z,37.20
2019-04-14T01:02:12.438Z,37.10
2019-04-14T01:04:57.667Z,37.20
2019-04-14T01:07:43.417Z,37.30
2019-04-14T01:10:29.969Z,37.30
2019-04-14T01:13:15.767Z,37.30
2019-04-14T01:16:08.726Z,37.40
2019-04-14T01:18:49.320Z,37.50
2019-04-14T01:21:34.939Z,37.60
2019-04-14T01:24:20.679Z,37.60
2019-04-14T01:27:06.068Z,37.60
2019-04-14T01:29:51.607Z,37.60
2019-04-14T01:32:37.253Z,37.70
2019-04-14T01:35:22.755Z,37.70
2019-04-14T01:38:08.039Z,37.60
2019-04-14T01:40:53.244Z,37.70
2019-04-14T01:43:38.854Z,37.70
2019-04-14T01:46:28.398Z,37.80
2019-04-14T01:49:12.091Z,37.10
2019-04-14T01:52:01.922Z,37.70
2019-04-14T01:54:58.338Z,37.80
2019-04-14T01:57:48.332Z,37.30
2019-04-14T02:00:38.303Z,37.80
2019-04-14T02:03:23.878Z,37.80
2019-04-14T02:06:09.342Z,37.90
2019-04-14T02:08:55.277Z,37.80
2019-04-14T02:11:42.280Z,37.70
2019-04-14T02:14:27.764Z,37.70
2019-04-14T02:17:13.262Z,37.80
2019-04-14T02:19:59.006Z,37.80
2019-04-14T02:22:44.150Z,37.80
2019-04-14T02:25:29.625Z,37.80
2019-04-14T02:28:15.554Z,37.90
2019-04-14T02:31:13.096Z,37.80
2019-04-14T02:34:15.710Z,37.90
2019-04-14T02:37:06.619Z,37.80
2019-04-14T02:40:01.258Z,37.80
2019-04-14T02:42:39.855Z,37.80
2019-04-14T02:45:32.229Z,38.00
2019-04-14T02:48:33.415Z,37.90
2019-04-14T02:51:06.126Z,37.90
2019-04-14T02:53:51.660Z,37.90
2019-04-14T02:59:22.953Z,37.90
2019-04-14T03:04:56.915Z,37.90
2019-04-14T03:07:46.878Z,37.90
2019-04-14T03:10:32.015Z,38.60
2019-04-14T03:13:25.729Z,38.00
2019-04-14T03:16:02.389Z,37.90
2019-04-14T03:19:06.529Z,38.00
2019-04-14T03:22:12.573Z,38.00
2019-04-14T03:24:44.353Z,38.00
2019-04-14T03:34:02.714Z,38.10
2019-04-14T03:36:43.694Z,38.00
2019-04-14T03:39:00.203Z,38.00
2019-04-14T03:41:37.157Z,38.90
2019-04-14T03:47:20.833Z,38.00
2019-04-14T03:50:09.654Z,38.00
2019-04-14T03:52:55.741Z,38.00
2019-04-14T03:55:52.391Z,38.00
2019-04-14T03:58:33.579Z,38.00
2019-04-14T04:01:19.343Z,38.10
2019-04-14T04:04:07.483Z,38.10
2019-04-14T04:06:53.053Z,38.10
2019-04-14T04:09:41.112Z,38.10
2019-04-14T04:12:27.070Z,38.10
2019-04-14T04:15:12.762Z,38.10
2019-04-14T04:18:09.152Z,38.10
2019-04-14T04:20:56.736Z,38.10
2019-04-14T04:23:44.684Z,38.10
2019-04-14T04:26:40.877Z,38.10
2019-04-14T04:29:28.814Z,38.30
2019-04-14T04:32:16.450Z,38.20
2019-04-14T04:35:04.481Z,38.10
2019-04-14T04:37:54.158Z,38.20
2019-04-14T04:40:39.752Z,38.20
2019-04-14T04:43:25.531Z,38.20
2019-04-14T04:46:11.330Z,38.20
2019-04-14T04:49:06.429Z,38.30
2019-04-14T04:51:44.333Z,38.20
2019-04-14T04:54:30.117Z,38.30
2019-04-14T04:57:15.540Z,38.20
2019-04-14T05:00:00.663Z,38.30
2019-04-14T05:02:48.515Z,38.20
2019-04-14T05:06:09.766Z,38.50
2019-04-14T05:09:06.189Z,38.30
2019-04-14T05:12:11.083Z,38.40
2019-04-14T05:15:00.978Z,38.40
2019-04-14T05:17:49.552Z,38.50
2019-04-14T05:20:35.623Z,38.50
2019-04-14T05:23:21.338Z,38.60
2019-04-14T05:26:07.080Z,38.50
2019-04-14T05:28:52.766Z,38.60
2019-04-14T05:31:38.274Z,38.50
2019-04-14T05:34:23.984Z,38.60
2019-04-14T05:37:09.259Z,38.60
2019-04-14T05:39:54.852Z,38.70
2019-04-14T05:42:40.781Z,38.70
2019-04-14T05:45:26.254Z,38.70
2019-04-14T05:48:11.800Z,38.60
2019-04-14T05:50:57.748Z,38.60
2019-04-14T05:53:43.773Z,38.70
2019-04-14T05:56:29.613Z,38.80
2019-04-14T05:59:15.644Z,38.90
2019-04-14T06:02:00.897Z,38.90
2019-04-14T06:04:46.344Z,38.90
2019-04-14T06:07:31.105Z,39.00
2019-04-14T06:10:16.608Z,38.90
2019-04-14T06:13:01.658Z,38.90
2019-04-14T06:15:46.563Z,38.90
2019-04-14T06:18:33.490Z,38.50
2019-04-14T06:21:18.350Z,38.80
2019-04-14T06:24:04.618Z,39.00
2019-04-14T06:26:49.255Z,39.10
2019-04-14T06:29:34.176Z,39.10
2019-04-14T06:32:20.863Z,39.10
2019-04-14T06:35:16.757Z,39.10
2019-04-14T06:38:05.866Z,38.90
2019-04-14T06:40:52.658Z,39.40
2019-04-14T06:43:48.430Z,38.50
2019-04-14T06:46:27.089Z,38.60
2019-04-14T06:49:11.815Z,38.60
2019-04-14T06:51:57.031Z,38.40
2019-04-14T06:54:41.735Z,38.30
2019-04-14T06:57:26.901Z,38.30
2019-04-14T07:00:12.311Z,38.30
2019-04-14T07:02:57.903Z,38.10
2019-04-14T07:05:43.573Z,38.20
2019-04-14T07:08:29.929Z,38.30
2019-04-14T07:11:15.009Z,38.30
2019-04-14T07:14:00.442Z,38.50
2019-04-14T07:16:45.487Z,38.50
2019-04-14T07:19:30.616Z,38.40
2019-04-14T07:22:17.731Z,38.70
2019-04-14T07:25:03.723Z,38.80
2019-04-14T07:27:48.922Z,38.80
2019-04-14T07:30:52.422Z,38.80
2019-04-14T07:33:56.199Z,38.60
2019-04-14T07:37:01.742Z,38.40
2019-04-14T07:40:01.048Z,38.50
2019-04-14T07:42:51.059Z,38.60
2019-04-14T07:45:38.304Z,38.80
2019-04-14T07:48:28.606Z,38.60
2019-04-14T07:51:24.772Z,38.40
2019-04-14T07:54:18.047Z,38.00
2019-04-14T07:57:05.597Z,38.20
2019-04-14T07:59:56.823Z,38.20
2019-04-14T08:02:46.498Z,38.30
2019-04-14T08:05:36.523Z,38.50
2019-04-14T08:08:21.466Z,38.70
2019-04-14T08:11:06.547Z,38.80
2019-04-14T08:13:51.586Z,38.60
2019-04-14T08:16:36.810Z,38.60
2019-04-14T08:19:22.416Z,38.80
2019-04-14T08:22:07.408Z,38.60
2019-04-14T08:24:52.650Z,38.50
2019-04-14T08:27:38.025Z,38.80
2019-04-14T08:30:23.283Z,38.80
2019-04-14T08:33:08.409Z,38.70
2019-04-14T08:35:53.690Z,38.70
2019-04-14T08:38:38.862Z,38.80
2019-04-14T08:41:24.568Z,39.00
2019-04-14T08:44:20.800Z,39.30
2019-04-14T08:47:07.851Z,39.20
2019-04-14T08:49:56.168Z,39.10
2019-04-14T08:52:52.258Z,39.00
2019-04-14T08:55:48.520Z,39.20
2019-04-14T08:58:35.586Z,39.50
2019-04-14T09:01:25.633Z,39.70
2019-04-14T09:04:18.753Z,39.60
2019-04-14T09:07:21.006Z,39.30
2019-04-14T09:10:10.878Z,39.00
2019-04-14T09:12:58.655Z,38.70
2019-04-14T09:15:43.740Z,38.80
2019-04-14T09:18:30.437Z,38.80
2019-04-14T09:21:15.165Z,38.90
2019-04-14T09:24:00.259Z,39.10
2019-04-14T09:26:45.059Z,39.10
2019-04-14T09:29:30.273Z,39.30
2019-04-14T09:32:15.902Z,39.40
2019-04-14T09:35:00.806Z,39.90
2019-04-14T09:37:45.925Z,39.00
2019-04-14T09:40:31.447Z,39.20
2019-04-14T09:43:16.581Z,39.00
2019-04-14T09:46:01.963Z,38.70
2019-04-14T09:48:47.257Z,38.40
2019-04-14T09:51:34.747Z,38.20
2019-04-14T09:54:19.951Z,38.30
2019-04-14T09:57:04.781Z,38.30
2019-04-14T09:59:49.977Z,38.00
2019-04-14T10:02:35.050Z,37.90
2019-04-14T10:05:21.226Z,37.60
2019-04-14T10:08:06.504Z,37.10
2019-04-14T10:10:53.681Z,36.80
2019-04-14T10:13:39.075Z,36.90
2019-04-14T10:16:24.180Z,36.80
2019-04-14T10:19:09.244Z,36.80
2019-04-14T10:21:53.982Z,36.90
2019-04-14T10:24:38.904Z,36.80
2019-04-14T10:27:23.602Z,36.70
2019-04-14T10:30:08.827Z,36.60
2019-04-14T10:32:53.951Z,36.80
2019-04-14T10:35:39.035Z,36.60
2019-04-14T10:38:23.876Z,36.50
2019-04-14T10:41:09.340Z,36.40
2019-04-14T10:43:54.389Z,36.50
2019-04-14T10:46:39.971Z,36.30
2019-04-14T10:49:25.411Z,36.30
2019-04-14T10:52:10.773Z,36.40
2019-04-14T10:54:55.949Z,36.50
2019-04-14T10:57:41.377Z,36.60
2019-04-14T11:00:26.597Z,36.70
2019-04-14T11:03:11.754Z,36.90
2019-04-14T11:05:58.448Z,37.60
2019-04-14T11:08:43.342Z,40.60
2019-04-14T11:11:28.766Z,41.50
2019-04-14T11:14:13.494Z,41.20
2019-04-14T11:16:59.215Z,40.50
2019-04-14T11:19:44.226Z,40.00
2019-04-14T11:22:29.016Z,39.70
2019-04-14T11:25:14.320Z,39.60
2019-04-14T11:27:59.535Z,39.10
2019-04-14T11:30:44.393Z,39.00
2019-04-14T11:33:34.114Z,38.90
2019-04-14T11:36:27.288Z,38.70
2019-04-14T11:39:14.512Z,38.60
2019-04-14T11:41:59.599Z,38.40
2019-04-14T11:44:45.990Z,39.00
2019-04-14T11:47:31.370Z,38.10
2019-04-14T11:50:16.865Z,38.00
2019-04-14T11:53:02.311Z,37.70
2019-04-14T11:55:47.863Z,37.80
2019-04-14T11:58:33.861Z,37.70
2019-04-14T12:01:31.671Z,37.60
2019-04-14T12:04:27.857Z,37.50
2019-04-14T12:07:17.714Z,37.20
2019-04-14T12:10:06.388Z,37.20
2019-04-14T12:12:51.593Z,37.10
2019-04-14T12:15:36.884Z,36.90
2019-04-14T12:18:22.230Z,36.80
2019-04-14T12:21:07.369Z,36.80
2019-04-14T12:23:52.709Z,36.70
2019-04-14T12:26:37.526Z,36.70
2019-04-14T12:29:23.643Z,36.70
2019-04-14T12:32:08.964Z,36.70
2019-04-14T12:34:55.743Z,36.60
2019-04-14T12:37:42.857Z,36.60
2019-04-14T12:40:27.668Z,36.60
2019-04-14T12:43:14.375Z,36.60
2019-04-14T12:46:16.317Z,36.50
2019-04-14T12:49:03.410Z,36.40
2019-04-14T12:51:53.399Z,36.10
2019-04-14T12:54:38.919Z,36.10
2019-04-14T12:57:35.694Z,36.00
2019-04-14T13:00:22.863Z,36.00
2019-04-14T13:03:07.757Z,35.90
2019-04-14T13:05:53.184Z,35.80
2019-04-14T13:08:38.520Z,35.70
2019-04-14T13:11:23.716Z,35.60
2019-04-14T13:14:08.777Z,35.50
2019-04-14T13:16:54.778Z,35.40
2019-04-14T13:19:40.043Z,35.20
2019-04-14T13:22:33.725Z,35.20
2019-04-14T13:25:11.563Z,35.20
2019-04-14T13:27:57.081Z,35.00
2019-04-14T13:30:42.971Z,34.90
2019-04-14T13:33:28.199Z,34.90
2019-04-14T13:36:13.480Z,34.90
2019-04-14T13:38:58.503Z,34.90
2019-04-14T13:41:43.665Z,34.80
2019-04-14T13:44:28.346Z,34.70
2019-04-14T13:47:13.965Z,34.60
2019-04-14T13:49:59.189Z,34.40
2019-04-14T13:52:47.018Z,34.50
2019-04-14T13:55:32.795Z,34.50
2019-04-14T13:58:18.266Z,34.40
2019-04-14T14:01:03.465Z,34.30
2019-04-14T14:03:50.380Z,34.10
2019-04-14T14:06:35.440Z,34.10
2019-04-14T14:09:20.462Z,34.00
2019-04-14T14:12:07.934Z,34.00
2019-04-14T14:15:04.492Z,33.80
2019-04-14T14:17:51.843Z,34.00
2019-04-14T14:20:39.080Z,33.80
2019-04-14T14:23:27.830Z,33.70
2019-04-14T14:26:14.990Z,33.70
2019-04-14T14:29:00.620Z,33.50
2019-04-14T14:31:47.019Z,33.60
2019-04-14T14:34:32.064Z,33.40
2019-04-14T14:37:17.393Z,33.40
2019-04-14T14:40:04.136Z,33.30
2019-04-14T14:42:51.249Z,33.40
2019-04-14T14:45:51.376Z,33.40
2019-04-14T14:48:41.396Z,33.20
2019-04-14T14:51:45.183Z,33.20
2019-04-14T14:54:30.429Z,33.30
2019-04-14T14:57:17.384Z,33.10
2019-04-14T15:00:08.576Z,33.00
2019-04-14T15:02:54.208Z,33.00
2019-04-14T15:05:39.357Z,33.00
2019-04-14T15:08:24.610Z,32.90
2019-04-14T15:11:09.842Z,32.80
2019-04-14T15:13:56.181Z,32.70
2019-04-14T15:16:41.357Z,32.70
2019-04-14T15:19:26.351Z,32.70
2019-04-14T15:22:11.338Z,32.30
2019-04-14T15:24:56.304Z,32.40
2019-04-14T15:27:41.242Z,32.30
2019-04-14T15:30:26.281Z,32.20
2019-04-14T15:33:11.477Z,32.20
2019-04-14T15:35:56.578Z,32.20
2019-04-14T15:38:42.096Z,32.20
2019-04-14T15:41:26.813Z,32.10
2019-04-14T15:44:11.754Z,32.10
2019-04-14T15:46:56.847Z,31.80
2019-04-14T15:49:42.442Z,31.90
2019-04-14T15:52:27.593Z,31.90
2019-04-14T15:55:16.569Z,31.90
2019-04-14T15:58:09.785Z,31.80
2019-04-14T16:01:15.069Z,31.80
2019-04-14T16:04:13.637Z,31.70
2019-04-14T16:07:06.551Z,31.70
2019-04-14T16:10:02.761Z,31.70
2019-04-14T16:13:07.101Z,31.80
2019-04-14T16:16:09.258Z,31.70
2019-04-14T16:19:05.559Z,31.60
2019-04-14T16:21:50.522Z,31.70
2019-04-14T16:24:35.806Z,31.70
2019-04-14T16:27:26.083Z,31.80
2019-04-14T16:30:19.281Z,31.80
2019-04-14T16:33:12.572Z,31.70
2019-04-14T16:35:58.668Z,31.80
2019-04-14T16:38:44.392Z,31.80
2019-04-14T16:41:30.492Z,31.90
2019-04-14T16:44:15.542Z,31.60
2019-04-14T16:47:00.869Z,31.50
2019-04-14T16:49:46.237Z,31.60
2019-04-14T16:52:36.199Z,31.50
2019-04-14T16:55:23.378Z,31.50
2019-04-14T16:58:25.841Z,31.60
2019-04-14T17:01:13.035Z,31.60
2019-04-14T17:03:57.998Z,31.60
2019-04-14T17:06:43.292Z,31.70
2019-04-14T17:09:28.363Z,31.70
2019-04-14T17:12:13.469Z,31.60
2019-04-14T17:15:00.634Z,31.70
2019-04-14T17:18:05.808Z,31.70
2019-04-14T17:20:59.104Z,31.70
2019-04-14T17:23:57.971Z,31.80
2019-04-14T17:26:46.268Z,31.70
2019-04-14T17:29:38.912Z,31.70
2019-04-14T17:32:29.090Z,31.70
2019-04-14T17:35:31.405Z,31.70
2019-04-14T17:38:21.655Z,31.80
2019-04-14T17:41:15.243Z,31.70
2019-04-14T17:44:05.990Z,31.80
2019-04-14T17:47:08.226Z,32.20
2019-04-14T17:50:13.207Z,31.70
2019-04-14T17:53:00.021Z,31.80
2019-04-14T17:55:50.058Z,31.80
2019-04-14T17:58:38.049Z,31.80
2019-04-14T18:01:25.303Z,31.80
2019-04-14T18:04:24.620Z,32.00
2019-04-14T18:07:11.833Z,31.90
2019-04-14T18:10:01.318Z,32.00
2019-04-14T18:12:54.051Z,32.00
2019-04-14T18:15:44.244Z,32.20
2019-04-14T18:18:31.204Z,32.10
2019-04-14T18:21:16.094Z,32.10
2019-04-14T18:24:02.673Z,32.10
2019-04-14T18:26:47.680Z,32.20
2019-04-14T18:29:34.933Z,32.20
2019-04-14T18:32:27.917Z,32.30
2019-04-14T18:35:15.118Z,32.20
2019-04-14T18:38:02.330Z,32.30
2019-04-14T18:40:54.981Z,32.40
2019-04-14T18:43:43.156Z,32.60
2019-04-14T18:46:33.136Z,32.50
2019-04-14T18:49:26.052Z,32.50
2019-04-14T18:52:13.340Z,32.60
2019-04-14T18:55:17.586Z,32.60
2019-04-14T18:58:21.403Z,32.80
2019-04-14T19:01:08.991Z,33.00
2019-04-14T19:03:54.317Z,33.10
2019-04-14T19:06:39.532Z,33.10
2019-04-14T19:09:24.779Z,33.20
2019-04-14T19:12:20.472Z,33.30
2019-04-14T19:15:13.750Z,33.20
2019-04-14T19:18:02.031Z,33.20
2019-04-14T19:20:49.096Z,33.10
2019-04-14T19:23:34.397Z,33.10
2019-04-14T19:26:19.033Z,33.20
2019-04-14T19:29:04.184Z,33.20
2019-04-14T19:31:49.518Z,33.20
2019-04-14T19:34:35.102Z,33.30
2019-04-14T19:37:20.356Z,33.20
2019-04-14T19:40:05.646Z,33.30
2019-04-14T19:42:50.502Z,33.30
2019-04-14T19:45:35.736Z,33.30
2019-04-14T19:48:21.205Z,33.30
2019-04-14T19:51:06.364Z,33.40
2019-04-14T19:53:51.556Z,33.50
2019-04-14T19:56:36.711Z,33.40
2019-04-14T19:59:21.654Z,33.50
2019-04-14T20:02:07.059Z,33.60
2019-04-14T20:04:52.057Z,33.60
2019-04-14T20:07:38.482Z,33.60
2019-04-14T20:10:23.537Z,33.70
2019-04-14T20:13:09.875Z,33.60
2019-04-14T20:15:58.703Z,33.50
2019-04-14T20:18:46.229Z,33.70
2019-04-14T20:21:42.246Z,33.70
2019-04-14T20:24:35.495Z,33.60
2019-04-14T20:27:22.491Z,33.70
2019-04-14T20:30:12.395Z,33.80
2019-04-14T20:32:57.767Z,33.80
2019-04-14T20:35:43.007Z,33.80
2019-04-14T20:38:27.783Z,33.80
2019-04-14T20:41:12.604Z,33.90
2019-04-14T20:43:57.986Z,33.80
2019-04-14T20:46:42.913Z,33.80
2019-04-14T20:49:27.623Z,33.70
2019-04-14T20:52:12.804Z,33.80
2019-04-14T20:54:57.704Z,33.80
2019-04-14T20:57:42.587Z,33.70
2019-04-14T21:00:28.199Z,33.70
2019-04-14T21:03:20.918Z,33.80
2019-04-14T21:06:08.253Z,33.80
2019-04-14T21:08:56.970Z,33.80
2019-04-14T21:11:58.940Z,33.80
2019-04-14T21:14:58.087Z,34.00
2019-04-14T21:18:03.044Z,34.00
2019-04-14T21:20:55.851Z,34.20
2019-04-14T21:23:45.823Z,33.70
2019-04-14T21:26:32.810Z,34.10
2019-04-14T21:29:19.676Z,34.10
2019-04-14T21:32:15.642Z,34.10
2019-04-14T21:35:05.542Z,34.30
2019-04-14T21:38:01.755Z,34.40
2019-04-14T21:41:05.001Z,34.50
2019-04-14T21:43:50.120Z,34.60
2019-04-14T21:46:35.534Z,34.70
2019-04-14T21:49:20.287Z,34.70
2019-04-14T21:52:07.527Z,34.70
2019-04-14T21:54:52.746Z,34.80
2019-04-14T21:57:51.658Z,34.80
2019-04-14T22:01:11.685Z,34.60
2019-04-14T22:04:07.644Z,34.80
2019-04-14T22:07:00.827Z,35.00
2019-04-14T22:09:46.007Z,34.90
2019-04-14T22:12:31.233Z,34.90
2019-04-14T22:15:16.778Z,34.90
2019-04-14T22:18:01.597Z,34.80
2019-04-14T22:20:46.676Z,34.70
2019-04-14T22:23:33.134Z,34.80
2019-04-14T22:26:26.089Z,35.00
2019-04-14T22:29:05.174Z,34.90
2019-04-14T22:31:50.571Z,35.00
2019-04-14T22:34:35.875Z,35.00
2019-04-14T22:37:20.758Z,35.10
2019-04-14T22:40:06.101Z,35.10
2019-04-14T22:42:51.590Z,35.10
2019-04-14T22:45:36.741Z,35.10
2019-04-14T22:48:21.641Z,35.00
2019-04-14T22:51:06.752Z,35.30
2019-04-14T22:53:51.795Z,35.50
2019-04-14T22:56:39.419Z,35.70
2019-04-14T22:59:23.677Z,35.60
2019-04-14T23:02:10.898Z,35.60
2019-04-14T23:05:16.363Z,35.60
2019-04-14T23:08:20.062Z,35.60
2019-04-14T23:11:13.325Z,35.60
2019-04-14T23:14:12.312Z,35.80
2019-04-14T23:16:59.464Z,35.80
2019-04-14T23:19:49.078Z,35.70
2019-04-14T23:22:45.428Z,35.70
2019-04-14T23:25:31.517Z,35.80
2019-04-14T23:28:16.584Z,35.90
2019-04-14T23:31:02.198Z,35.90
2019-04-14T23:33:47.303Z,35.80
2019-04-14T23:36:34.030Z,35.90
2019-04-14T23:39:18.956Z,36.10
2019-04-14T23:42:04.425Z,36.20
2019-04-14T23:44:49.823Z,36.20
2019-04-14T23:47:35.083Z,36.20
2019-04-14T23:50:20.049Z,36.30
2019-04-14T23:53:04.988Z,36.10
2019-04-14T23:55:50.825Z,36.20
2019-04-14T23:58:36.025Z,36.10
